createdAt,value
2022-11-28T00:00:46.901Z,0.00
2022-11-28T00:01:46.920Z,0.00
2022-11-28T00:02:46.929Z,0.00
2022-11-28T00:03:46.792Z,0.00
2022-11-28T00:04:46.877Z,0.00
2022-11-28T00:05:47.134Z,0.00
2022-11-28T00:06:46.687Z,0.00
2022-11-28T00:07:46.714Z,0.00
2022-11-28T00:08:46.606Z,0.00
2022-11-28T00:09:46.627Z,0.00
2022-11-28T00:10:46.550Z,0.00
2022-11-28T00:11:46.494Z,0.00
2022-11-28T00:12:46.481Z,0.00
2022-11-28T00:13:46.429Z,0.00
2022-11-28T00:14:46.383Z,0.00
2022-11-28T00:15:46.462Z,0.00
2022-11-28T00:16:46.317Z,0.00
2022-11-28T00:17:46.286Z,0.00
2022-11-28T00:18:46.254Z,0.00
2022-11-28T00:19:46.206Z,0.00
2022-11-28T00:20:46.235Z,0.00
2022-11-28T00:21:46.175Z,0.00
2022-11-28T00:22:46.088Z,0.00
2022-11-28T00:23:46.068Z,0.00
2022-11-28T00:24:46.031Z,0.00
2022-11-28T00:25:45.983Z,0.00
2022-11-28T00:26:45.962Z,0.00
2022-11-28T00:27:45.962Z,0.00
2022-11-28T00:28:45.880Z,0.00
2022-11-28T00:29:45.840Z,0.00
2022-11-28T00:30:45.818Z,0.00
2022-11-28T00:31:45.862Z,0.00
2022-11-28T00:32:45.730Z,0.00
2022-11-28T00:33:45.756Z,0.00
2022-11-28T00:34:45.673Z,0.00
2022-11-28T00:35:45.637Z,0.00
2022-11-28T00:36:45.654Z,0.00
2022-11-28T00:37:45.550Z,0.00
2022-11-28T00:38:45.522Z,0.00
2022-11-28T00:39:45.541Z,0.00
2022-11-28T00:40:45.436Z,0.00
2022-11-28T00:41:45.401Z,0.00
2022-11-28T00:42:45.383Z,0.00
2022-11-28T00:43:45.324Z,0.00
2022-11-28T00:44:45.296Z,0.00
2022-11-28T00:45:45.354Z,0.00
2022-11-28T00:46:45.210Z,0.00
2022-11-28T00:47:45.187Z,0.00
2022-11-28T00:48:45.149Z,0.00
2022-11-28T00:49:45.118Z,0.00
2022-11-28T00:50:45.091Z,0.00
2022-11-28T00:51:45.088Z,0.00
2022-11-28T00:52:45.069Z,0.00
2022-11-28T00:53:44.959Z,0.00
2022-11-28T00:54:44.931Z,0.00
2022-11-28T00:55:44.884Z,0.00
2022-11-28T00:56:44.857Z,0.00
2022-11-28T00:57:44.880Z,0.00
2022-11-28T00:58:44.792Z,0.00
2022-11-28T00:59:44.762Z,0.00
2022-11-28T01:00:44.737Z,0.00
2022-11-28T01:01:44.787Z,0.00
2022-11-28T01:02:44.733Z,0.00
2022-11-28T01:03:44.648Z,0.00
2022-11-28T01:04:44.665Z,0.00
2022-11-28T01:05:44.538Z,0.00
2022-11-28T01:06:44.490Z,0.00
2022-11-28T01:07:44.540Z,0.00
2022-11-28T01:08:44.493Z,0.00
2022-11-28T01:09:44.428Z,0.00
2022-11-28T01:10:44.338Z,0.00
2022-11-28T01:11:44.439Z,0.00
2022-11-28T01:12:44.265Z,0.00
2022-11-28T01:13:44.236Z,0.00
2022-11-28T01:14:44.487Z,0.00
2022-11-28T01:15:44.169Z,0.00
2022-11-28T01:16:44.204Z,0.00
2022-11-28T01:17:44.103Z,0.00
2022-11-28T01:18:44.053Z,0.00
2022-11-28T01:19:44.024Z,0.00
2022-11-28T01:20:44.100Z,0.00
2022-11-28T01:21:43.944Z,0.00
2022-11-28T01:22:43.977Z,0.00
2022-11-28T01:23:43.868Z,0.00
2022-11-28T01:24:44.059Z,0.00
2022-11-28T01:25:43.805Z,0.00
2022-11-28T01:26:43.755Z,0.00
2022-11-28T01:27:43.717Z,0.00
2022-11-28T01:28:43.754Z,0.00
2022-11-28T01:29:43.695Z,0.00
2022-11-28T01:30:43.636Z,0.00
2022-11-28T01:31:43.629Z,0.00
2022-11-28T01:32:43.539Z,0.00
2022-11-28T01:33:43.563Z,0.00
2022-11-28T01:34:43.757Z,0.00
2022-11-28T01:35:43.446Z,0.00
2022-11-28T01:36:43.399Z,0.00
2022-11-28T01:37:43.361Z,0.00
2022-11-28T01:38:43.392Z,0.00
2022-11-28T01:39:43.282Z,0.00
2022-11-28T01:40:43.323Z,0.00
2022-11-28T01:41:43.218Z,0.00
2022-11-28T01:42:43.169Z,0.00
2022-11-28T01:43:43.147Z,0.00
2022-11-28T01:44:43.407Z,0.00
2022-11-28T01:45:43.067Z,0.00
2022-11-28T01:46:43.051Z,0.00
2022-11-28T01:47:42.988Z,0.00
2022-11-28T01:48:42.953Z,0.00
2022-11-28T01:49:42.917Z,0.00
2022-11-28T01:50:42.931Z,0.00
2022-11-28T01:51:42.853Z,0.00
2022-11-28T01:52:42.815Z,0.00
2022-11-28T01:53:42.770Z,0.00
2022-11-28T01:54:43.072Z,0.00
2022-11-28T01:55:42.697Z,0.00
2022-11-28T01:56:42.783Z,0.00
2022-11-28T01:57:42.613Z,0.00
2022-11-28T01:58:42.591Z,0.00
2022-11-28T01:59:42.614Z,0.00
2022-11-28T02:00:42.558Z,0.00
2022-11-28T02:01:42.517Z,0.00
2022-11-28T02:02:42.442Z,0.00
2022-11-28T02:03:42.403Z,0.00
2022-11-28T02:04:42.612Z,0.00
2022-11-28T02:05:42.334Z,0.00
2022-11-28T02:06:42.308Z,0.00
2022-11-28T02:07:42.274Z,0.00
2022-11-28T02:08:42.232Z,0.00
2022-11-28T02:09:42.187Z,0.00
2022-11-28T02:10:42.212Z,0.00
2022-11-28T02:11:42.119Z,0.00
2022-11-28T02:12:42.141Z,0.00
2022-11-28T02:13:42.038Z,0.00
2022-11-28T02:14:42.189Z,0.00
2022-11-28T02:15:41.969Z,0.00
2022-11-28T02:16:42.035Z,0.00
2022-11-28T02:17:41.897Z,0.00
2022-11-28T02:18:44.993Z,0.00
2022-11-28T02:19:41.829Z,0.00
2022-11-28T02:20:41.833Z,0.00
2022-11-28T02:21:41.739Z,0.00
2022-11-28T02:22:41.724Z,0.00
2022-11-28T02:23:41.668Z,0.00
2022-11-28T02:24:41.783Z,0.00
2022-11-28T02:25:41.670Z,0.00
2022-11-28T02:26:41.577Z,0.00
2022-11-28T02:27:41.529Z,0.00
2022-11-28T02:28:41.552Z,0.00
2022-11-28T02:29:41.451Z,0.00
2022-11-28T02:30:41.414Z,0.00
2022-11-28T02:31:41.602Z,0.00
2022-11-28T02:32:41.339Z,0.00
2022-11-28T02:33:41.311Z,0.00
2022-11-28T02:34:45.655Z,0.00
2022-11-28T02:35:41.220Z,0.00
2022-11-28T02:36:41.187Z,0.00
2022-11-28T02:37:41.220Z,0.00
2022-11-28T02:38:41.115Z,0.00
2022-11-28T02:39:41.093Z,0.00
2022-11-28T02:40:41.052Z,0.00
2022-11-28T02:41:41.005Z,0.00
2022-11-28T02:42:40.972Z,0.00
2022-11-28T02:43:40.982Z,0.00
2022-11-28T02:44:41.318Z,0.00
2022-11-28T02:45:40.863Z,0.00
2022-11-28T02:46:40.885Z,0.00
2022-11-28T02:47:40.795Z,0.00
2022-11-28T02:48:40.752Z,0.00
2022-11-28T02:49:40.777Z,0.00
2022-11-28T02:50:40.692Z,0.00
2022-11-28T02:51:40.653Z,0.00
2022-11-28T02:52:40.673Z,0.00
2022-11-28T02:53:40.573Z,0.00
2022-11-28T02:54:40.877Z,0.00
2022-11-28T02:55:40.490Z,0.00
2022-11-28T02:56:40.456Z,0.00
2022-11-28T02:57:40.509Z,0.00
2022-11-28T02:58:40.397Z,0.00
2022-11-28T02:59:40.344Z,0.00
2022-11-28T03:00:40.453Z,0.00
2022-11-28T03:01:40.290Z,0.00
2022-11-28T03:02:40.236Z,0.00
2022-11-28T03:03:40.283Z,0.00
2022-11-28T03:04:40.423Z,0.00
2022-11-28T03:05:40.131Z,0.00
2022-11-28T03:06:40.091Z,0.00
2022-11-28T03:07:40.128Z,0.00
2022-11-28T03:08:40.085Z,0.00
2022-11-28T03:09:39.994Z,0.00
2022-11-28T03:10:39.944Z,0.00
2022-11-28T03:11:39.901Z,0.00
2022-11-28T03:12:39.871Z,0.00
2022-11-28T03:13:39.841Z,0.00
2022-11-28T03:14:40.020Z,0.00
2022-11-28T03:15:39.754Z,0.00
2022-11-28T03:16:39.852Z,0.00
2022-11-28T03:17:39.674Z,0.00
2022-11-28T03:18:39.654Z,0.00
2022-11-28T03:19:39.661Z,0.00
2022-11-28T03:20:39.569Z,0.00
2022-11-28T03:21:39.542Z,0.00
2022-11-28T03:22:39.491Z,0.00
2022-11-28T03:23:39.468Z,0.00
2022-11-28T03:24:39.485Z,0.00
2022-11-28T03:25:39.447Z,0.00
2022-11-28T03:26:39.366Z,0.00
2022-11-28T03:27:39.314Z,0.00
2022-11-28T03:28:43.342Z,0.00
2022-11-28T03:29:39.245Z,0.00
2022-11-28T03:30:39.189Z,0.00
2022-11-28T03:31:39.272Z,0.00
2022-11-28T03:32:39.193Z,0.00
2022-11-28T03:33:39.086Z,0.00
2022-11-28T03:34:39.167Z,0.00
2022-11-28T03:35:39.027Z,0.00
2022-11-28T03:36:38.979Z,0.00
2022-11-28T03:37:39.008Z,0.00
2022-11-28T03:38:38.895Z,0.00
2022-11-28T03:39:38.869Z,0.00
2022-11-28T03:40:38.836Z,0.00
2022-11-28T03:41:38.797Z,0.00
2022-11-28T03:42:38.752Z,0.00
2022-11-28T03:43:38.778Z,0.00
2022-11-28T03:44:38.676Z,0.00
2022-11-28T03:45:38.640Z,0.00
2022-11-28T03:46:38.658Z,0.00
2022-11-28T03:47:38.577Z,0.00
2022-11-28T03:48:38.598Z,0.00
2022-11-28T03:49:38.553Z,0.00
2022-11-28T03:50:38.466Z,0.00
2022-11-28T03:51:38.428Z,0.00
2022-11-28T03:52:38.390Z,0.00
2022-11-28T03:53:38.356Z,0.00
2022-11-28T03:54:38.382Z,0.00
2022-11-28T03:55:38.308Z,0.00
2022-11-28T03:56:38.244Z,0.00
2022-11-28T03:57:38.200Z,0.00
2022-11-28T03:58:38.170Z,0.00
2022-11-28T03:59:38.197Z,0.00
2022-11-28T04:00:38.114Z,0.00
2022-11-28T04:01:38.106Z,0.00
2022-11-28T04:02:38.074Z,0.00
2022-11-28T04:03:37.970Z,0.00
2022-11-28T04:04:38.007Z,0.00
2022-11-28T04:05:37.963Z,0.00
2022-11-28T04:06:37.876Z,0.00
2022-11-28T04:07:37.878Z,0.00
2022-11-28T04:08:37.796Z,0.00
2022-11-28T04:09:37.757Z,0.00
2022-11-28T04:10:37.735Z,0.00
2022-11-28T04:11:37.748Z,0.00
2022-11-28T04:12:37.656Z,0.00
2022-11-28T04:13:37.618Z,0.00
2022-11-28T04:14:37.572Z,0.00
2022-11-28T04:15:37.526Z,0.00
2022-11-28T04:16:37.545Z,0.00
2022-11-28T04:17:37.517Z,0.00
2022-11-28T04:18:37.430Z,0.00
2022-11-28T04:19:37.388Z,0.00
2022-11-28T04:20:37.404Z,0.00
2022-11-28T04:21:37.308Z,0.00
2022-11-28T04:22:37.283Z,0.00
2022-11-28T04:23:37.300Z,0.00
2022-11-28T04:24:37.203Z,0.00
2022-11-28T04:25:37.166Z,0.00
2022-11-28T04:26:37.127Z,0.00
2022-11-28T04:27:37.079Z,0.00
2022-11-28T04:28:37.043Z,0.00
2022-11-28T04:29:37.074Z,0.00
2022-11-28T04:30:36.999Z,0.00
2022-11-28T04:31:36.998Z,0.00
2022-11-28T04:32:36.892Z,0.00
2022-11-28T04:33:36.880Z,0.00
2022-11-28T04:34:36.821Z,0.00
2022-11-28T04:35:36.864Z,0.00
2022-11-28T04:36:36.831Z,0.00
2022-11-28T04:37:36.725Z,0.00
2022-11-28T04:38:36.687Z,0.00
2022-11-28T04:39:36.646Z,0.00
2022-11-28T04:40:36.609Z,0.00
2022-11-28T04:41:36.622Z,0.00
2022-11-28T04:42:36.545Z,0.00
2022-11-28T04:43:36.485Z,0.00
2022-11-28T04:44:36.460Z,0.00
2022-11-28T04:45:36.500Z,0.00
2022-11-28T04:46:36.374Z,0.00
2022-11-28T04:47:36.409Z,0.00
2022-11-28T04:48:36.301Z,0.00
2022-11-28T04:49:36.268Z,0.00
2022-11-28T04:50:36.235Z,0.00
2022-11-28T04:51:36.198Z,0.00
2022-11-28T04:52:36.213Z,0.00
2022-11-28T04:53:36.417Z,0.00
2022-11-28T04:54:36.099Z,0.00
2022-11-28T04:55:36.047Z,0.00
2022-11-28T04:56:36.020Z,0.00
2022-11-28T04:57:35.975Z,0.00
2022-11-28T04:58:35.954Z,0.00
2022-11-28T04:59:35.999Z,0.00
2022-11-28T05:00:35.921Z,0.00
2022-11-28T05:01:35.823Z,0.00
2022-11-28T05:02:35.876Z,0.00
2022-11-28T05:03:39.872Z,0.00
2022-11-28T05:04:35.713Z,0.00
2022-11-28T05:05:35.752Z,0.00
2022-11-28T05:06:35.645Z,0.00
2022-11-28T05:07:35.657Z,0.00
2022-11-28T05:08:35.631Z,0.00
2022-11-28T05:09:35.528Z,0.00
2022-11-28T05:10:35.486Z,0.00
2022-11-28T05:11:35.502Z,0.00
2022-11-28T05:12:35.414Z,0.00
2022-11-28T05:13:35.377Z,0.00
2022-11-28T05:14:35.345Z,0.00
2022-11-28T05:15:35.297Z,0.00
2022-11-28T05:16:35.397Z,0.00
2022-11-28T05:17:40.441Z,0.00
2022-11-28T05:18:35.216Z,0.00
2022-11-28T05:19:35.161Z,0.00
2022-11-28T05:20:35.122Z,0.00
2022-11-28T05:21:35.089Z,0.00
2022-11-28T05:22:35.139Z,0.00
2022-11-28T05:23:35.024Z,0.00
2022-11-28T05:24:35.045Z,0.00
2022-11-28T05:25:34.940Z,0.00
2022-11-28T05:26:34.900Z,0.00
2022-11-28T05:27:34.874Z,0.00
2022-11-28T05:28:34.890Z,0.00
2022-11-28T05:29:34.800Z,0.00
2022-11-28T05:30:34.754Z,0.00
2022-11-28T05:31:34.818Z,0.00
2022-11-28T05:32:34.681Z,0.00
2022-11-28T05:33:34.639Z,0.00
2022-11-28T05:34:34.667Z,0.00
2022-11-28T05:35:34.580Z,0.00
2022-11-28T05:36:34.534Z,0.00
2022-11-28T05:37:34.501Z,0.00
2022-11-28T05:38:34.462Z,0.00
2022-11-28T05:39:34.433Z,0.00
2022-11-28T05:40:34.518Z,0.00
2022-11-28T05:41:34.352Z,0.00
2022-11-28T05:42:34.316Z,0.00
2022-11-28T05:43:34.287Z,0.00
2022-11-28T05:44:34.234Z,0.00
2022-11-28T05:45:34.242Z,0.00
2022-11-28T05:46:34.246Z,0.00
2022-11-28T05:47:34.138Z,0.00
2022-11-28T05:48:34.137Z,0.00
2022-11-28T05:49:34.069Z,0.00
2022-11-28T05:50:39.689Z,0.00
2022-11-28T05:51:34.033Z,0.00
2022-11-28T05:52:34.023Z,0.00
2022-11-28T05:53:33.920Z,0.00
2022-11-28T05:54:33.882Z,0.00
2022-11-28T05:55:33.842Z,0.00
2022-11-28T05:56:36.980Z,0.00
2022-11-28T05:57:33.827Z,0.00
2022-11-28T05:58:33.790Z,0.00
2022-11-28T05:59:33.702Z,0.00
2022-11-28T06:00:33.642Z,0.00
2022-11-28T06:01:33.617Z,0.00
2022-11-28T06:02:33.605Z,0.00
2022-11-28T06:03:33.544Z,0.00
2022-11-28T06:04:33.719Z,0.00
2022-11-28T06:05:42.574Z,0.00
2022-11-28T06:06:33.436Z,0.00
2022-11-28T06:07:33.433Z,0.00
2022-11-28T06:08:33.356Z,0.00
2022-11-28T06:09:33.346Z,0.00
2022-11-28T06:10:33.360Z,0.00
2022-11-28T06:11:33.250Z,0.00
2022-11-28T06:12:33.276Z,0.00
2022-11-28T06:13:33.179Z,0.00
2022-11-28T06:14:33.147Z,0.00
2022-11-28T06:15:37.594Z,0.00
2022-11-28T06:16:33.164Z,0.00
2022-11-28T06:17:33.020Z,0.00
2022-11-28T06:18:32.987Z,0.00
2022-11-28T06:19:35.121Z,0.00
2022-11-28T06:20:32.917Z,0.00
2022-11-28T06:21:32.882Z,0.00
2022-11-28T06:22:32.899Z,0.00
2022-11-28T06:23:32.804Z,0.00
2022-11-28T06:24:32.773Z,0.00
2022-11-28T06:25:32.736Z,0.00
2022-11-28T06:26:32.689Z,0.00
2022-11-28T06:27:32.654Z,0.00
2022-11-28T06:28:32.740Z,0.00
2022-11-28T06:29:32.584Z,0.00
2022-11-28T06:30:32.546Z,0.00
2022-11-28T06:31:32.571Z,0.00
2022-11-28T06:32:32.503Z,0.00
2022-11-28T06:33:32.435Z,0.00
2022-11-28T06:34:32.455Z,0.00
2022-11-28T06:35:32.367Z,0.00
2022-11-28T06:36:32.334Z,0.00
2022-11-28T06:37:32.286Z,0.00
2022-11-28T06:38:32.255Z,0.00
2022-11-28T06:39:32.214Z,0.00
2022-11-28T06:40:32.236Z,0.00
2022-11-28T06:41:32.134Z,0.00
2022-11-28T06:42:32.125Z,0.00
2022-11-28T06:43:32.068Z,5.63
2022-11-28T06:44:32.097Z,5.63
2022-11-28T06:45:31.992Z,5.63
2022-11-28T06:46:32.076Z,5.63
2022-11-28T06:47:31.910Z,5.63
2022-11-28T06:48:32.380Z,5.63
2022-11-28T06:49:31.844Z,5.63
2022-11-28T06:50:31.808Z,5.63
2022-11-28T06:51:31.782Z,5.63
2022-11-28T06:52:31.781Z,5.63
2022-11-28T06:53:31.866Z,5.63
2022-11-28T06:54:31.662Z,11.25
2022-11-28T06:55:31.623Z,11.25
2022-11-28T06:56:31.582Z,11.25
2022-11-28T06:57:31.550Z,11.25
2022-11-28T06:58:31.564Z,11.25
2022-11-28T06:59:31.470Z,16.88
2022-11-28T07:00:31.503Z,16.88
2022-11-28T07:01:31.479Z,16.88
2022-11-28T07:02:31.438Z,16.88
2022-11-28T07:03:31.333Z,16.88
2022-11-28T07:04:31.342Z,16.88
2022-11-28T07:05:31.250Z,22.50
2022-11-28T07:06:31.209Z,22.50
2022-11-28T07:07:31.197Z,22.50
2022-11-28T07:08:31.136Z,28.13
2022-11-28T07:09:31.104Z,28.13
2022-11-28T07:10:31.113Z,28.13
2022-11-28T07:11:31.118Z,33.75
2022-11-28T07:12:30.989Z,33.75
2022-11-28T07:13:31.050Z,33.75
2022-11-28T07:14:30.978Z,39.38
2022-11-28T07:15:30.886Z,39.38
2022-11-28T07:16:30.953Z,45.00
2022-11-28T07:17:30.875Z,45.00
2022-11-28T07:18:30.776Z,45.00
2022-11-28T07:19:30.729Z,50.63
2022-11-28T07:20:30.699Z,50.63
2022-11-28T07:21:30.679Z,50.63
2022-11-28T07:22:30.629Z,56.25
2022-11-28T07:23:30.636Z,56.25
2022-11-28T07:24:30.545Z,56.25
2022-11-28T07:25:30.524Z,56.25
2022-11-28T07:26:30.471Z,56.25
2022-11-28T07:27:30.436Z,61.88
2022-11-28T07:28:30.393Z,61.88
2022-11-28T07:29:30.419Z,61.88
2022-11-28T07:30:30.330Z,61.88
2022-11-28T07:31:30.376Z,61.88
2022-11-28T07:32:30.316Z,61.88
2022-11-28T07:33:30.226Z,67.50
2022-11-28T07:34:30.181Z,67.50
2022-11-28T07:35:30.185Z,67.50
2022-11-28T07:36:30.106Z,67.50
2022-11-28T07:37:30.068Z,73.13
2022-11-28T07:38:30.035Z,73.13
2022-11-28T07:39:29.995Z,73.13
2022-11-28T07:40:29.959Z,78.75
2022-11-28T07:41:30.149Z,78.75
2022-11-28T07:42:29.881Z,78.75
2022-11-28T07:43:29.858Z,84.38
2022-11-28T07:44:29.819Z,84.38
2022-11-28T07:45:47.439Z,84.38
2022-11-28T07:46:29.847Z,90.00
2022-11-28T07:47:29.782Z,90.00
2022-11-28T07:48:29.668Z,90.00
2022-11-28T07:49:29.731Z,90.00
2022-11-28T07:50:29.595Z,95.63
2022-11-28T07:51:29.554Z,95.63
2022-11-28T07:52:29.524Z,95.63
2022-11-28T07:53:29.489Z,95.63
2022-11-28T07:54:29.508Z,95.63
2022-11-28T07:55:29.412Z,95.63
2022-11-28T07:56:39.414Z,95.63
2022-11-28T07:57:29.328Z,95.63
2022-11-28T07:58:29.310Z,95.63
2022-11-28T07:59:29.268Z,95.63
2022-11-28T08:00:29.284Z,95.63
2022-11-28T08:01:29.221Z,95.63
2022-11-28T08:02:29.211Z,95.63
2022-11-28T08:03:29.110Z,101.25
2022-11-28T08:04:29.157Z,101.25
2022-11-28T08:05:29.107Z,101.25
2022-11-28T08:06:29.008Z,101.25
2022-11-28T08:07:29.015Z,101.25
2022-11-28T08:08:28.998Z,106.88
2022-11-28T08:09:29.397Z,106.88
2022-11-28T08:10:28.919Z,106.88
2022-11-28T08:11:28.825Z,106.88
2022-11-28T08:12:28.781Z,112.50
2022-11-28T08:13:28.753Z,112.50
2022-11-28T08:14:28.723Z,112.50
2022-11-28T08:15:28.746Z,112.50
2022-11-28T08:16:28.896Z,112.50
2022-11-28T08:17:28.606Z,112.50
2022-11-28T08:18:28.586Z,118.13
2022-11-28T08:19:33.670Z,118.13
2022-11-28T08:20:28.560Z,123.75
2022-11-28T08:21:28.459Z,123.75
2022-11-28T08:22:28.420Z,123.75
2022-11-28T08:23:28.378Z,129.38
2022-11-28T08:24:28.359Z,129.38
2022-11-28T08:25:28.310Z,135.00
2022-11-28T08:26:30.560Z,135.00
2022-11-28T08:27:28.268Z,140.63
2022-11-28T08:28:28.291Z,140.63
2022-11-28T08:29:28.159Z,140.63
2022-11-28T08:30:28.188Z,146.25
2022-11-28T08:31:28.141Z,146.25
2022-11-28T08:32:28.119Z,151.88
2022-11-28T08:33:28.023Z,151.88
2022-11-28T08:34:27.980Z,151.88
2022-11-28T08:35:28.036Z,151.88
2022-11-28T08:36:29.305Z,157.50
2022-11-28T08:37:27.885Z,157.50
2022-11-28T08:38:27.913Z,157.50
2022-11-28T08:39:27.871Z,157.50
2022-11-28T08:40:27.764Z,163.13
2022-11-28T08:41:27.725Z,163.13
2022-11-28T08:42:27.715Z,163.13
2022-11-28T08:43:27.665Z,163.13
2022-11-28T08:44:30.343Z,168.75
2022-11-28T08:45:27.586Z,168.75
2022-11-28T08:46:27.630Z,168.75
2022-11-28T08:47:27.512Z,168.75
2022-11-28T08:48:27.532Z,174.38
2022-11-28T08:49:27.441Z,174.38
2022-11-28T08:50:27.470Z,174.38
2022-11-28T08:51:27.370Z,174.38
2022-11-28T08:52:27.339Z,174.38
2022-11-28T08:53:27.293Z,174.38
2022-11-28T08:54:27.316Z,174.38
2022-11-28T08:55:32.096Z,168.75
2022-11-28T08:56:27.399Z,168.75
2022-11-28T08:57:27.161Z,168.75
2022-11-28T08:58:27.123Z,168.75
2022-11-28T08:59:27.087Z,168.75
2022-11-28T09:00:27.052Z,168.75
2022-11-28T09:01:27.106Z,168.75
2022-11-28T09:02:27.033Z,168.75
2022-11-28T09:03:27.058Z,168.75
2022-11-28T09:04:26.914Z,168.75
2022-11-28T09:05:26.871Z,168.75
2022-11-28T09:06:26.835Z,174.38
2022-11-28T09:07:26.859Z,174.38
2022-11-28T09:08:26.809Z,174.38
2022-11-28T09:09:31.466Z,180.00
2022-11-28T09:10:26.685Z,180.00
2022-11-28T09:11:26.649Z,185.63
2022-11-28T09:12:26.614Z,185.63
2022-11-28T09:13:26.586Z,191.25
2022-11-28T09:14:26.625Z,191.25
2022-11-28T09:15:26.522Z,191.25
2022-11-28T09:16:26.504Z,191.25
2022-11-28T09:17:26.434Z,196.88
2022-11-28T09:18:26.398Z,196.88
2022-11-28T09:19:26.369Z,196.88
2022-11-28T09:20:26.374Z,196.88
2022-11-28T09:21:26.291Z,196.88
2022-11-28T09:22:26.250Z,196.88
2022-11-28T09:23:26.237Z,196.88
2022-11-28T09:24:26.195Z,191.25
2022-11-28T09:25:26.161Z,185.63
2022-11-28T09:26:26.196Z,185.63
2022-11-28T09:27:26.077Z,185.63
2022-11-28T09:28:26.042Z,185.63
2022-11-28T09:29:26.013Z,191.25
2022-11-28T09:30:25.982Z,191.25
2022-11-28T09:31:26.099Z,202.50
2022-11-28T09:32:25.986Z,208.13
2022-11-28T09:33:25.861Z,213.75
2022-11-28T09:34:25.841Z,219.38
2022-11-28T09:35:25.790Z,219.38
2022-11-28T09:36:25.762Z,213.75
2022-11-28T09:37:25.719Z,213.75
2022-11-28T09:38:25.785Z,202.50
2022-11-28T09:39:25.651Z,208.13
2022-11-28T09:40:25.627Z,213.75
2022-11-28T09:41:25.654Z,213.75
2022-11-28T09:42:25.554Z,213.75
2022-11-28T09:43:25.518Z,213.75
2022-11-28T09:44:25.469Z,213.75
2022-11-28T09:45:25.447Z,208.13
2022-11-28T09:46:25.493Z,213.75
2022-11-28T09:47:25.427Z,213.75
2022-11-28T09:48:25.332Z,213.75
2022-11-28T09:49:25.300Z,213.75
2022-11-28T09:50:25.269Z,219.38
2022-11-28T09:51:25.230Z,219.38
2022-11-28T09:52:25.283Z,219.38
2022-11-28T09:53:25.165Z,219.38
2022-11-28T09:54:25.125Z,219.38
2022-11-28T09:55:25.090Z,219.38
2022-11-28T09:56:25.056Z,219.38
2022-11-28T09:57:25.087Z,225.00
2022-11-28T09:58:24.979Z,230.63
2022-11-28T09:59:24.949Z,230.63
2022-11-28T10:00:24.923Z,230.63
2022-11-28T10:01:24.887Z,230.63
2022-11-28T10:02:24.895Z,236.25
2022-11-28T10:03:24.869Z,236.25
2022-11-28T10:04:24.817Z,236.25
2022-11-28T10:05:24.745Z,236.25
2022-11-28T10:06:24.699Z,236.25
2022-11-28T10:07:24.758Z,236.25
2022-11-28T10:08:24.636Z,236.25
2022-11-28T10:09:24.597Z,230.63
2022-11-28T10:10:24.566Z,236.25
2022-11-28T10:11:24.533Z,230.63
2022-11-28T10:12:24.511Z,230.63
2022-11-28T10:13:27.438Z,230.63
2022-11-28T10:14:24.420Z,230.63
2022-11-28T10:15:24.403Z,230.63
2022-11-28T10:16:24.538Z,230.63
2022-11-28T10:17:24.323Z,225.00
2022-11-28T10:18:24.291Z,225.00
2022-11-28T10:19:57.204Z,219.38
2022-11-28T10:20:24.228Z,213.75
2022-11-28T10:21:24.188Z,213.75
2022-11-28T10:22:24.185Z,208.13
2022-11-28T10:23:24.175Z,208.13
2022-11-28T10:24:24.075Z,208.13
2022-11-28T10:25:24.055Z,208.13
2022-11-28T10:26:24.007Z,208.13
2022-11-28T10:27:26.895Z,208.13
2022-11-28T10:28:24.000Z,208.13
2022-11-28T10:29:23.909Z,208.13
2022-11-28T10:30:23.896Z,208.13
2022-11-28T10:31:23.870Z,208.13
2022-11-28T10:32:23.792Z,213.75
2022-11-28T10:33:23.771Z,213.75
2022-11-28T10:34:23.786Z,213.75
2022-11-28T10:35:28.096Z,219.38
2022-11-28T10:36:23.656Z,219.38
2022-11-28T10:37:23.623Z,219.38
2022-11-28T10:38:23.585Z,225.00
2022-11-28T10:39:23.550Z,225.00
2022-11-28T10:40:23.581Z,230.63
2022-11-28T10:41:23.497Z,225.00
2022-11-28T10:42:23.453Z,225.00
2022-11-28T10:43:23.415Z,225.00
2022-11-28T10:44:23.381Z,225.00
2022-11-28T10:45:23.337Z,225.00
2022-11-28T10:46:23.413Z,225.00
2022-11-28T10:47:23.283Z,225.00
2022-11-28T10:48:38.990Z,225.00
2022-11-28T10:49:23.201Z,230.63
2022-11-28T10:50:24.985Z,230.63
2022-11-28T10:51:23.155Z,230.63
2022-11-28T10:52:23.179Z,236.25
2022-11-28T10:53:23.069Z,230.63
2022-11-28T10:54:23.035Z,230.63
2022-11-28T10:55:22.995Z,230.63
2022-11-28T10:56:22.962Z,230.63
2022-11-28T10:57:22.942Z,225.00
2022-11-28T10:58:22.950Z,225.00
2022-11-28T10:59:22.861Z,225.00
2022-11-28T11:00:22.820Z,219.38
2022-11-28T11:01:22.863Z,213.75
2022-11-28T11:02:22.754Z,208.13
2022-11-28T11:03:22.722Z,208.13
2022-11-28T11:04:22.805Z,202.50
2022-11-28T11:05:22.647Z,202.50
2022-11-28T11:06:22.613Z,196.88
2022-11-28T11:07:27.931Z,196.88
2022-11-28T11:08:22.632Z,191.25
2022-11-28T11:09:22.507Z,185.63
2022-11-28T11:10:22.532Z,185.63
2022-11-28T11:11:22.437Z,185.63
2022-11-28T11:12:22.414Z,185.63
2022-11-28T11:13:22.367Z,185.63
2022-11-28T11:14:22.336Z,180.00
2022-11-28T11:15:22.305Z,180.00
2022-11-28T11:16:22.368Z,180.00
2022-11-28T11:17:22.229Z,180.00
2022-11-28T11:18:22.206Z,185.63
2022-11-28T11:19:22.169Z,185.63
2022-11-28T11:20:22.130Z,185.63
2022-11-28T11:21:22.092Z,185.63
2022-11-28T11:22:23.930Z,185.63
2022-11-28T11:23:22.054Z,191.25
2022-11-28T11:24:21.999Z,191.25
2022-11-28T11:25:21.963Z,191.25
2022-11-28T11:26:21.928Z,191.25
2022-11-28T11:27:21.893Z,191.25
2022-11-28T11:28:21.917Z,191.25
2022-11-28T11:29:21.816Z,191.25
2022-11-28T11:30:21.808Z,196.88
2022-11-28T11:31:21.846Z,196.88
2022-11-28T11:32:21.748Z,196.88
2022-11-28T11:33:21.682Z,196.88
2022-11-28T11:34:21.747Z,196.88
2022-11-28T11:35:21.634Z,196.88
2022-11-28T11:36:21.593Z,196.88
2022-11-28T11:37:21.539Z,196.88
2022-11-28T11:38:21.507Z,196.88
2022-11-28T11:39:21.480Z,202.50
2022-11-28T11:40:21.498Z,202.50
2022-11-28T11:41:21.406Z,202.50
2022-11-28T11:42:21.369Z,202.50
2022-11-28T11:43:21.328Z,202.50
2022-11-28T11:44:21.297Z,202.50
2022-11-28T11:45:21.274Z,202.50
2022-11-28T11:46:21.375Z,202.50
2022-11-28T11:47:21.201Z,202.50
2022-11-28T11:48:21.163Z,202.50
2022-11-28T11:49:21.127Z,202.50
2022-11-28T11:50:21.087Z,202.50
2022-11-28T11:51:21.054Z,202.50
2022-11-28T11:52:21.085Z,202.50
2022-11-28T11:53:20.982Z,202.50
2022-11-28T11:54:20.956Z,202.50
2022-11-28T11:55:20.917Z,202.50
2022-11-28T11:56:20.889Z,202.50
2022-11-28T11:57:35.301Z,202.50
2022-11-28T11:58:20.873Z,196.88
2022-11-28T11:59:20.778Z,196.88
2022-11-28T12:00:20.750Z,196.88
2022-11-28T12:01:20.709Z,196.88
2022-11-28T12:02:20.704Z,196.88
2022-11-28T12:03:20.775Z,196.88
2022-11-28T12:04:43.895Z,196.88
2022-11-28T12:05:20.573Z,196.88
2022-11-28T12:06:20.536Z,191.25
2022-11-28T12:07:20.538Z,191.25
2022-11-28T12:08:20.475Z,191.25
2022-11-28T12:09:20.431Z,191.25
2022-11-28T12:10:20.456Z,191.25
2022-11-28T12:11:20.364Z,191.25
2022-11-28T12:12:20.328Z,185.63
2022-11-28T12:13:20.291Z,185.63
2022-11-28T12:14:20.273Z,185.63
2022-11-28T12:15:20.220Z,185.63
2022-11-28T12:16:20.319Z,185.63
2022-11-28T12:17:47.392Z,185.63
2022-11-28T12:18:20.125Z,180.00
2022-11-28T12:19:20.085Z,180.00
2022-11-28T12:20:20.051Z,180.00
2022-11-28T12:21:20.028Z,174.38
2022-11-28T12:22:20.038Z,174.38
2022-11-28T12:23:19.942Z,168.75
2022-11-28T12:24:19.917Z,168.75
2022-11-28T12:25:19.889Z,168.75
2022-11-28T12:26:19.849Z,168.75
2022-11-28T12:27:19.850Z,163.13
2022-11-28T12:28:19.837Z,163.13
2022-11-28T12:30:19.706Z,163.13
2022-11-28T12:31:19.731Z,163.13
2022-11-28T12:32:19.656Z,157.50
2022-11-28T12:33:19.604Z,157.50
2022-11-28T12:34:19.629Z,157.50
2022-11-28T12:35:19.535Z,157.50
2022-11-28T12:36:19.503Z,157.50
2022-11-28T12:37:19.476Z,157.50
2022-11-28T12:38:19.432Z,151.88
2022-11-28T12:39:19.398Z,151.88
2022-11-28T12:40:19.430Z,151.88
2022-11-28T12:41:19.316Z,151.88
2022-11-28T12:42:19.356Z,151.88
2022-11-28T12:43:19.253Z,157.50
2022-11-28T12:44:19.218Z,157.50
2022-11-28T12:45:19.187Z,157.50
2022-11-28T12:46:19.283Z,157.50
2022-11-28T12:47:19.188Z,157.50
2022-11-28T12:48:19.085Z,157.50
2022-11-28T12:49:19.053Z,157.50
2022-11-28T12:50:19.014Z,157.50
2022-11-28T12:51:18.979Z,157.50
2022-11-28T12:52:18.987Z,151.88
2022-11-28T12:53:18.967Z,151.88
2022-11-28T12:54:18.874Z,151.88
2022-11-28T12:55:18.837Z,151.88
2022-11-28T12:56:18.816Z,146.25
2022-11-28T12:57:18.778Z,146.25